sensor_id;sensor_type;location;lat;lon;timestamp;P1;durP1;ratioP1;P2;durP2;ratioP2
434;SDS011;204;48.942;9.256;2023-04-04T00:00:01;3.60;;;1.70;;
434;SDS011;204;48.942;9.256;2023-04-04T00:02:27;6.07;;;2.10;;
434;SDS011;204;48.942;9.256;2023-04-04T00:04:52;5.40;;;2.07;;
434;SDS011;204;48.942;9.256;2023-04-04T00:07:18;1.80;;;1.30;;
434;SDS011;204;48.942;9.256;2023-04-04T00:09:43;3.07;;;2.10;;
434;SDS011;204;48.942;9.256;2023-04-04T00:12:09;2.93;;;1.83;;
434;SDS011;204;48.942;9.256;2023-04-04T00:14:35;1.43;;;1.33;;
434;SDS011;204;48.942;9.256;2023-04-04T00:17:00;3.40;;;2.40;;
434;SDS011;204;48.942;9.256;2023-04-04T00:19:26;2.00;;;1.90;;
434;SDS011;204;48.942;9.256;2023-04-04T00:21:52;3.93;;;1.87;;
434;SDS011;204;48.942;9.256;2023-04-04T00:24:17;3.50;;;2.20;;
434;SDS011;204;48.942;9.256;2023-04-04T00:26:43;3.87;;;2.10;;
434;SDS011;204;48.942;9.256;2023-04-04T00:29:08;3.57;;;2.10;;
434;SDS011;204;48.942;9.256;2023-04-04T00:31:34;3.67;;;2.30;;
434;SDS011;204;48.942;9.256;2023-04-04T00:33:59;2.10;;;1.60;;
434;SDS011;204;48.942;9.256;2023-04-04T00:36:25;3.90;;;1.90;;
434;SDS011;204;48.942;9.256;2023-04-04T00:38:51;1.80;;;1.57;;
434;SDS011;204;48.942;9.256;2023-04-04T00:41:16;1.50;;;1.47;;
434;SDS011;204;48.942;9.256;2023-04-04T00:43:42;1.50;;;1.43;;
434;SDS011;204;48.942;9.256;2023-04-04T00:46:09;3.42;;;1.85;;
434;SDS011;204;48.942;9.256;2023-04-04T00:48:39;3.03;;;2.05;;
434;SDS011;204;48.942;9.256;2023-04-04T00:51:05;3.00;;;1.60;;
434;SDS011;204;48.942;9.256;2023-04-04T00:53:31;4.10;;;2.07;;
434;SDS011;204;48.942;9.256;2023-04-04T00:55:57;3.97;;;2.50;;
434;SDS011;204;48.942;9.256;2023-04-04T00:58:23;2.50;;;1.80;;
434;SDS011;204;48.942;9.256;2023-04-04T01:00:49;2.90;;;1.92;;
434;SDS011;204;48.942;9.256;2023-04-04T01:03:15;3.87;;;1.93;;
434;SDS011;204;48.942;9.256;2023-04-04T01:05:40;4.00;;;2.20;;
434;SDS011;204;48.942;9.256;2023-04-04T01:08:07;4.38;;;2.17;;
434;SDS011;204;48.942;9.256;2023-04-04T01:10:32;3.00;;;1.87;;
434;SDS011;204;48.942;9.256;2023-04-04T01:12:58;3.50;;;2.10;;
434;SDS011;204;48.942;9.256;2023-04-04T01:15:24;1.83;;;1.50;;
434;SDS011;204;48.942;9.256;2023-04-04T01:17:50;2.77;;;2.00;;
434;SDS011;204;48.942;9.256;2023-04-04T01:20:22;2.80;;;2.33;;
434;SDS011;204;48.942;9.256;2023-04-04T01:22:50;6.60;;;2.10;;
434;SDS011;204;48.942;9.256;2023-04-04T01:25:28;3.28;;;1.80;;
434;SDS011;204;48.942;9.256;2023-04-04T01:27:56;3.72;;;2.00;;
434;SDS011;204;48.942;9.256;2023-04-04T01:30:22;5.85;;;2.55;;
434;SDS011;204;48.942;9.256;2023-04-04T01:32:58;2.45;;;1.63;;
434;SDS011;204;48.942;9.256;2023-04-04T01:38:17;2.65;;;1.85;;
434;SDS011;204;48.942;9.256;2023-04-04T01:40:51;2.40;;;2.22;;
434;SDS011;204;48.942;9.256;2023-04-04T01:43:26;4.07;;;2.10;;
434;SDS011;204;48.942;9.256;2023-04-04T01:45:54;2.40;;;2.20;;
434;SDS011;204;48.942;9.256;2023-04-04T01:48:20;1.83;;;1.73;;
434;SDS011;204;48.942;9.256;2023-04-04T01:50:46;3.60;;;2.10;;
434;SDS011;204;48.942;9.256;2023-04-04T01:53:11;7.10;;;2.00;;
434;SDS011;204;48.942;9.256;2023-04-04T01:55:37;1.93;;;1.70;;
434;SDS011;204;48.942;9.256;2023-04-04T01:58:02;3.70;;;2.33;;
434;SDS011;204;48.942;9.256;2023-04-04T02:00:28;2.57;;;1.90;;
434;SDS011;204;48.942;9.256;2023-04-04T02:02:54;3.03;;;1.90;;
434;SDS011;204;48.942;9.256;2023-04-04T02:05:19;2.67;;;2.13;;
434;SDS011;204;48.942;9.256;2023-04-04T02:07:48;3.30;;;2.27;;
434;SDS011;204;48.942;9.256;2023-04-04T02:10:14;2.30;;;2.10;;
434;SDS011;204;48.942;9.256;2023-04-04T02:12:40;4.15;;;2.58;;
434;SDS011;204;48.942;9.256;2023-04-04T02:15:06;4.07;;;2.30;;
434;SDS011;204;48.942;9.256;2023-04-04T02:17:32;2.85;;;2.45;;
434;SDS011;204;48.942;9.256;2023-04-04T02:19:58;3.17;;;2.25;;
434;SDS011;204;48.942;9.256;2023-04-04T02:22:24;2.90;;;2.70;;
434;SDS011;204;48.942;9.256;2023-04-04T02:24:49;3.80;;;2.53;;
434;SDS011;204;48.942;9.256;2023-04-04T02:27:15;4.27;;;1.90;;
434;SDS011;204;48.942;9.256;2023-04-04T02:29:40;4.83;;;2.20;;
434;SDS011;204;48.942;9.256;2023-04-04T02:32:06;2.90;;;2.07;;
434;SDS011;204;48.942;9.256;2023-04-04T02:34:32;1.73;;;1.70;;
434;SDS011;204;48.942;9.256;2023-04-04T02:36:57;3.97;;;2.53;;
434;SDS011;204;48.942;9.256;2023-04-04T02:39:23;2.40;;;2.00;;
434;SDS011;204;48.942;9.256;2023-04-04T02:41:49;4.83;;;2.43;;
434;SDS011;204;48.942;9.256;2023-04-04T02:44:15;3.17;;;1.90;;
434;SDS011;204;48.942;9.256;2023-04-04T02:46:40;2.80;;;2.17;;
434;SDS011;204;48.942;9.256;2023-04-04T02:49:06;3.73;;;2.43;;
434;SDS011;204;48.942;9.256;2023-04-04T02:51:32;4.80;;;2.50;;
434;SDS011;204;48.942;9.256;2023-04-04T02:53:57;3.63;;;2.03;;
434;SDS011;204;48.942;9.256;2023-04-04T02:56:23;2.80;;;2.50;;
434;SDS011;204;48.942;9.256;2023-04-04T02:58:48;3.00;;;2.57;;
434;SDS011;204;48.942;9.256;2023-04-04T03:01:14;5.17;;;2.77;;
434;SDS011;204;48.942;9.256;2023-04-04T03:03:40;2.57;;;2.33;;
434;SDS011;204;48.942;9.256;2023-04-04T03:06:05;2.73;;;2.33;;
434;SDS011;204;48.942;9.256;2023-04-04T03:08:31;4.43;;;3.00;;
434;SDS011;204;48.942;9.256;2023-04-04T03:10:58;3.00;;;2.20;;
434;SDS011;204;48.942;9.256;2023-04-04T03:13:24;6.33;;;2.73;;
434;SDS011;204;48.942;9.256;2023-04-04T03:15:49;4.67;;;2.70;;
434;SDS011;204;48.942;9.256;2023-04-04T03:18:15;2.57;;;2.37;;
434;SDS011;204;48.942;9.256;2023-04-04T03:20:41;5.13;;;2.57;;
434;SDS011;204;48.942;9.256;2023-04-04T03:23:10;3.03;;;2.58;;
434;SDS011;204;48.942;9.256;2023-04-04T03:25:35;3.27;;;2.27;;
434;SDS011;204;48.942;9.256;2023-04-04T03:28:10;2.93;;;2.50;;
434;SDS011;204;48.942;9.256;2023-04-04T03:30:36;2.80;;;2.60;;
434;SDS011;204;48.942;9.256;2023-04-04T03:33:03;3.53;;;2.90;;
434;SDS011;204;48.942;9.256;2023-04-04T03:35:32;3.33;;;2.63;;
434;SDS011;204;48.942;9.256;2023-04-04T03:38:02;4.07;;;3.10;;
434;SDS011;204;48.942;9.256;2023-04-04T03:40:28;3.37;;;3.17;;
434;SDS011;204;48.942;9.256;2023-04-04T03:42:53;3.73;;;2.90;;
434;SDS011;204;48.942;9.256;2023-04-04T03:45:19;3.07;;;2.90;;
434;SDS011;204;48.942;9.256;2023-04-04T03:47:44;2.90;;;2.50;;
434;SDS011;204;48.942;9.256;2023-04-04T03:50:10;4.47;;;3.10;;
434;SDS011;204;48.942;9.256;2023-04-04T03:52:36;3.97;;;3.17;;
434;SDS011;204;48.942;9.256;2023-04-04T03:55:03;5.20;;;3.35;;
434;SDS011;204;48.942;9.256;2023-04-04T03:57:31;3.88;;;3.15;;
434;SDS011;204;48.942;9.256;2023-04-04T03:59:57;4.93;;;3.00;;
434;SDS011;204;48.942;9.256;2023-04-04T04:02:22;4.50;;;3.40;;
434;SDS011;204;48.942;9.256;2023-04-04T04:04:48;5.50;;;3.87;;
434;SDS011;204;48.942;9.256;2023-04-04T04:07:13;5.20;;;3.80;;
434;SDS011;204;48.942;9.256;2023-04-04T04:09:39;4.37;;;3.60;;
434;SDS011;204;48.942;9.256;2023-04-04T04:12:05;6.40;;;3.90;;
434;SDS011;204;48.942;9.256;2023-04-04T04:14:31;9.45;;;4.43;;
434;SDS011;204;48.942;9.256;2023-04-04T04:16:56;6.90;;;3.47;;
434;SDS011;204;48.942;9.256;2023-04-04T04:19:22;5.73;;;4.40;;
434;SDS011;204;48.942;9.256;2023-04-04T04:21:47;6.60;;;4.40;;
434;SDS011;204;48.942;9.256;2023-04-04T04:24:13;6.07;;;3.90;;
434;SDS011;204;48.942;9.256;2023-04-04T04:26:38;6.47;;;4.23;;
434;SDS011;204;48.942;9.256;2023-04-04T04:29:04;5.47;;;4.57;;
434;SDS011;204;48.942;9.256;2023-04-04T04:31:31;6.13;;;4.10;;
434;SDS011;204;48.942;9.256;2023-04-04T04:33:57;5.73;;;4.97;;
434;SDS011;204;48.942;9.256;2023-04-04T04:36:22;7.23;;;5.33;;
434;SDS011;204;48.942;9.256;2023-04-04T04:38:48;6.43;;;4.57;;
434;SDS011;204;48.942;9.256;2023-04-04T04:41:14;5.83;;;4.67;;
434;SDS011;204;48.942;9.256;2023-04-04T04:43:39;4.70;;;4.40;;
434;SDS011;204;48.942;9.256;2023-04-04T04:46:05;8.60;;;5.03;;
434;SDS011;204;48.942;9.256;2023-04-04T04:48:32;6.60;;;4.30;;
434;SDS011;204;48.942;9.256;2023-04-04T04:50:58;4.15;;;3.80;;
434;SDS011;204;48.942;9.256;2023-04-04T04:53:24;8.30;;;4.50;;
434;SDS011;204;48.942;9.256;2023-04-04T04:55:50;8.60;;;4.55;;
434;SDS011;204;48.942;9.256;2023-04-04T04:58:18;6.65;;;4.50;;
434;SDS011;204;48.942;9.256;2023-04-04T05:00:47;5.03;;;4.15;;
434;SDS011;204;48.942;9.256;2023-04-04T05:03:13;7.10;;;4.47;;
434;SDS011;204;48.942;9.256;2023-04-04T05:05:41;6.97;;;4.40;;
434;SDS011;204;48.942;9.256;2023-04-04T05:08:07;9.43;;;4.25;;
434;SDS011;204;48.942;9.256;2023-04-04T05:10:33;5.43;;;5.17;;
434;SDS011;204;48.942;9.256;2023-04-04T05:12:59;6.63;;;4.80;;
434;SDS011;204;48.942;9.256;2023-04-04T05:15:24;5.10;;;4.07;;
434;SDS011;204;48.942;9.256;2023-04-04T05:17:53;9.07;;;4.53;;
434;SDS011;204;48.942;9.256;2023-04-04T05:20:18;5.60;;;4.63;;
434;SDS011;204;48.942;9.256;2023-04-04T05:22:44;7.30;;;4.97;;
434;SDS011;204;48.942;9.256;2023-04-04T05:25:11;9.13;;;5.70;;
434;SDS011;204;48.942;9.256;2023-04-04T05:27:37;6.95;;;4.63;;
434;SDS011;204;48.942;9.256;2023-04-04T05:30:03;7.80;;;5.13;;
434;SDS011;204;48.942;9.256;2023-04-04T05:32:30;9.02;;;4.25;;
434;SDS011;204;48.942;9.256;2023-04-04T05:34:55;8.57;;;4.90;;
434;SDS011;204;48.942;9.256;2023-04-04T05:37:21;13.40;;;4.90;;
434;SDS011;204;48.942;9.256;2023-04-04T05:39:47;7.27;;;4.73;;
434;SDS011;204;48.942;9.256;2023-04-04T05:42:13;7.40;;;4.63;;
434;SDS011;204;48.942;9.256;2023-04-04T05:44:38;11.83;;;5.10;;
434;SDS011;204;48.942;9.256;2023-04-04T05:47:04;14.10;;;7.20;;
434;SDS011;204;48.942;9.256;2023-04-04T05:49:29;10.50;;;7.20;;
434;SDS011;204;48.942;9.256;2023-04-04T05:51:55;6.93;;;5.83;;
434;SDS011;204;48.942;9.256;2023-04-04T05:54:21;9.13;;;5.13;;
434;SDS011;204;48.942;9.256;2023-04-04T05:56:47;10.02;;;4.05;;
434;SDS011;204;48.942;9.256;2023-04-04T05:59:12;9.20;;;4.60;;
434;SDS011;204;48.942;9.256;2023-04-04T06:01:38;6.67;;;4.50;;
434;SDS011;204;48.942;9.256;2023-04-04T06:04:04;7.97;;;3.70;;
434;SDS011;204;48.942;9.256;2023-04-04T06:06:30;6.38;;;3.90;;
434;SDS011;204;48.942;9.256;2023-04-04T06:08:57;8.02;;;4.35;;
434;SDS011;204;48.942;9.256;2023-04-04T06:11:22;8.60;;;3.93;;
434;SDS011;204;48.942;9.256;2023-04-04T06:13:48;5.30;;;3.67;;
434;SDS011;204;48.942;9.256;2023-04-04T06:16:14;6.13;;;3.47;;
434;SDS011;204;48.942;9.256;2023-04-04T06:18:40;7.67;;;3.63;;
434;SDS011;204;48.942;9.256;2023-04-04T06:21:05;5.40;;;3.60;;
434;SDS011;204;48.942;9.256;2023-04-04T06:23:31;12.47;;;3.97;;
434;SDS011;204;48.942;9.256;2023-04-04T06:25:56;4.13;;;3.17;;
434;SDS011;204;48.942;9.256;2023-04-04T06:28:22;5.03;;;3.70;;
434;SDS011;204;48.942;9.256;2023-04-04T06:30:48;6.23;;;3.60;;
434;SDS011;204;48.942;9.256;2023-04-04T06:33:14;6.03;;;3.30;;
434;SDS011;204;48.942;9.256;2023-04-04T06:35:40;5.20;;;3.90;;
434;SDS011;204;48.942;9.256;2023-04-04T06:38:05;4.00;;;2.93;;
434;SDS011;204;48.942;9.256;2023-04-04T06:40:31;4.20;;;3.43;;
434;SDS011;204;48.942;9.256;2023-04-04T06:42:57;4.13;;;2.97;;
434;SDS011;204;48.942;9.256;2023-04-04T06:45:23;4.67;;;3.60;;
434;SDS011;204;48.942;9.256;2023-04-04T06:47:49;8.50;;;3.45;;
434;SDS011;204;48.942;9.256;2023-04-04T06:50:17;5.43;;;2.80;;
434;SDS011;204;48.942;9.256;2023-04-04T06:52:43;3.37;;;2.60;;
434;SDS011;204;48.942;9.256;2023-04-04T06:55:08;5.90;;;3.53;;
434;SDS011;204;48.942;9.256;2023-04-04T06:57:34;4.30;;;3.23;;
434;SDS011;204;48.942;9.256;2023-04-04T07:00:00;24.73;;;3.80;;
434;SDS011;204;48.942;9.256;2023-04-04T07:02:27;4.20;;;3.65;;
434;SDS011;204;48.942;9.256;2023-04-04T07:04:52;6.53;;;3.27;;
434;SDS011;204;48.942;9.256;2023-04-04T07:07:18;5.03;;;2.50;;
434;SDS011;204;48.942;9.256;2023-04-04T07:09:43;7.63;;;3.67;;
434;SDS011;204;48.942;9.256;2023-04-04T07:12:09;4.90;;;2.47;;
434;SDS011;204;48.942;9.256;2023-04-04T07:14:37;3.55;;;2.70;;
434;SDS011;204;48.942;9.256;2023-04-04T07:17:03;3.27;;;2.93;;
434;SDS011;204;48.942;9.256;2023-04-04T07:19:28;4.53;;;3.00;;
434;SDS011;204;48.942;9.256;2023-04-04T07:21:54;3.60;;;3.43;;
434;SDS011;204;48.942;9.256;2023-04-04T07:24:20;5.38;;;3.30;;
434;SDS011;204;48.942;9.256;2023-04-04T07:26:46;6.20;;;3.00;;
434;SDS011;204;48.942;9.256;2023-04-04T07:29:12;4.00;;;2.90;;
434;SDS011;204;48.942;9.256;2023-04-04T07:31:38;5.33;;;2.30;;
434;SDS011;204;48.942;9.256;2023-04-04T07:34:04;10.55;;;2.70;;
434;SDS011;204;48.942;9.256;2023-04-04T07:36:30;9.32;;;3.67;;
434;SDS011;204;48.942;9.256;2023-04-04T07:38:55;5.17;;;2.87;;
434;SDS011;204;48.942;9.256;2023-04-04T07:41:21;4.95;;;3.88;;
434;SDS011;204;48.942;9.256;2023-04-04T07:43:47;5.50;;;2.60;;
434;SDS011;204;48.942;9.256;2023-04-04T07:46:14;3.55;;;2.40;;
434;SDS011;204;48.942;9.256;2023-04-04T07:48:39;3.28;;;2.65;;
434;SDS011;204;48.942;9.256;2023-04-04T07:51:05;3.60;;;3.00;;
434;SDS011;204;48.942;9.256;2023-04-04T07:53:31;2.28;;;2.08;;
434;SDS011;204;48.942;9.256;2023-04-04T07:55:57;3.47;;;2.40;;
434;SDS011;204;48.942;9.256;2023-04-04T07:58:22;3.37;;;2.57;;
434;SDS011;204;48.942;9.256;2023-04-04T08:00:51;3.20;;;2.13;;
434;SDS011;204;48.942;9.256;2023-04-04T08:03:20;4.37;;;2.90;;
434;SDS011;204;48.942;9.256;2023-04-04T08:05:47;3.17;;;2.80;;
434;SDS011;204;48.942;9.256;2023-04-04T08:08:13;3.93;;;3.10;;
434;SDS011;204;48.942;9.256;2023-04-04T08:10:39;5.43;;;3.20;;
434;SDS011;204;48.942;9.256;2023-04-04T08:13:04;3.07;;;2.73;;
434;SDS011;204;48.942;9.256;2023-04-04T08:15:30;4.10;;;3.30;;
434;SDS011;204;48.942;9.256;2023-04-04T08:17:56;3.90;;;2.60;;
434;SDS011;204;48.942;9.256;2023-04-04T08:20:21;3.20;;;2.20;;
434;SDS011;204;48.942;9.256;2023-04-04T08:22:47;4.30;;;3.03;;
434;SDS011;204;48.942;9.256;2023-04-04T08:25:13;4.22;;;3.05;;
434;SDS011;204;48.942;9.256;2023-04-04T08:27:39;5.60;;;3.03;;
434;SDS011;204;48.942;9.256;2023-04-04T08:30:07;6.82;;;3.67;;
434;SDS011;204;48.942;9.256;2023-04-04T08:32:34;3.63;;;2.35;;
434;SDS011;204;48.942;9.256;2023-04-04T08:34:59;2.77;;;2.63;;
434;SDS011;204;48.942;9.256;2023-04-04T08:37:25;5.37;;;2.47;;
434;SDS011;204;48.942;9.256;2023-04-04T08:39:53;3.90;;;2.90;;
434;SDS011;204;48.942;9.256;2023-04-04T08:42:19;3.92;;;2.63;;
434;SDS011;204;48.942;9.256;2023-04-04T08:44:45;2.83;;;2.53;;
434;SDS011;204;48.942;9.256;2023-04-04T08:47:14;3.65;;;3.45;;
434;SDS011;204;48.942;9.256;2023-04-04T08:49:42;4.03;;;2.40;;
434;SDS011;204;48.942;9.256;2023-04-04T08:52:13;2.72;;;2.50;;
434;SDS011;204;48.942;9.256;2023-04-04T08:54:43;3.10;;;2.10;;
434;SDS011;204;48.942;9.256;2023-04-04T08:57:10;5.47;;;2.75;;
434;SDS011;204;48.942;9.256;2023-04-04T08:59:36;5.10;;;3.03;;
434;SDS011;204;48.942;9.256;2023-04-04T09:02:25;5.00;;;2.67;;
434;SDS011;204;48.942;9.256;2023-04-04T09:04:51;3.05;;;2.53;;
434;SDS011;204;48.942;9.256;2023-04-04T09:07:17;6.68;;;2.72;;
434;SDS011;204;48.942;9.256;2023-04-04T09:09:44;5.05;;;3.08;;
434;SDS011;204;48.942;9.256;2023-04-04T09:12:12;4.75;;;2.22;;
434;SDS011;204;48.942;9.256;2023-04-04T09:14:39;3.47;;;2.70;;
434;SDS011;204;48.942;9.256;2023-04-04T09:17:07;4.95;;;2.95;;
434;SDS011;204;48.942;9.256;2023-04-04T09:19:34;4.03;;;2.67;;
434;SDS011;204;48.942;9.256;2023-04-04T09:22:00;2.90;;;2.55;;
434;SDS011;204;48.942;9.256;2023-04-04T09:24:38;4.77;;;3.67;;
434;SDS011;204;48.942;9.256;2023-04-04T09:27:06;5.05;;;3.40;;
434;SDS011;204;48.942;9.256;2023-04-04T09:29:39;2.53;;;2.30;;
434;SDS011;204;48.942;9.256;2023-04-04T09:32:14;3.65;;;2.65;;
434;SDS011;204;48.942;9.256;2023-04-04T09:34:41;3.05;;;2.85;;
434;SDS011;204;48.942;9.256;2023-04-04T09:37:08;3.97;;;2.42;;
434;SDS011;204;48.942;9.256;2023-04-04T09:39:38;3.50;;;2.30;;
434;SDS011;204;48.942;9.256;2023-04-04T09:42:04;2.38;;;2.08;;
434;SDS011;204;48.942;9.256;2023-04-04T09:44:31;3.90;;;3.10;;
434;SDS011;204;48.942;9.256;2023-04-04T09:49:52;3.00;;;2.25;;
434;SDS011;204;48.942;9.256;2023-04-04T09:52:21;3.05;;;2.40;;
434;SDS011;204;48.942;9.256;2023-04-04T09:54:56;2.27;;;2.07;;
434;SDS011;204;48.942;9.256;2023-04-04T09:57:24;3.00;;;2.80;;
434;SDS011;204;48.942;9.256;2023-04-04T10:00:00;5.97;;;2.55;;
434;SDS011;204;48.942;9.256;2023-04-04T10:02:28;2.60;;;2.47;;
434;SDS011;204;48.942;9.256;2023-04-04T10:04:55;5.97;;;2.78;;
434;SDS011;204;48.942;9.256;2023-04-04T10:07:30;3.50;;;2.50;;
434;SDS011;204;48.942;9.256;2023-04-04T10:10:00;4.72;;;2.53;;
434;SDS011;204;48.942;9.256;2023-04-04T10:12:29;4.82;;;2.78;;
434;SDS011;204;48.942;9.256;2023-04-04T10:14:55;3.65;;;2.72;;
434;SDS011;204;48.942;9.256;2023-04-04T10:17:28;2.60;;;2.28;;
434;SDS011;204;48.942;9.256;2023-04-04T10:19:56;4.60;;;2.20;;
434;SDS011;204;48.942;9.256;2023-04-04T10:22:25;3.20;;;2.00;;
434;SDS011;204;48.942;9.256;2023-04-04T10:24:51;3.20;;;2.83;;
434;SDS011;204;48.942;9.256;2023-04-04T10:27:18;2.70;;;2.28;;
434;SDS011;204;48.942;9.256;2023-04-04T10:29:44;4.05;;;2.53;;
434;SDS011;204;48.942;9.256;2023-04-04T10:32:12;3.75;;;2.60;;
434;SDS011;204;48.942;9.256;2023-04-04T10:34:52;2.83;;;2.30;;
434;SDS011;204;48.942;9.256;2023-04-04T10:37:25;4.70;;;2.65;;
434;SDS011;204;48.942;9.256;2023-04-04T10:40:08;5.70;;;2.53;;
434;SDS011;204;48.942;9.256;2023-04-04T10:42:38;4.90;;;2.60;;
434;SDS011;204;48.942;9.256;2023-04-04T10:45:08;2.95;;;2.75;;
434;SDS011;204;48.942;9.256;2023-04-04T10:47:35;4.00;;;2.90;;
434;SDS011;204;48.942;9.256;2023-04-04T10:50:02;4.80;;;2.50;;
434;SDS011;204;48.942;9.256;2023-04-04T10:52:31;2.70;;;2.50;;
434;SDS011;204;48.942;9.256;2023-04-04T10:54:58;4.55;;;2.72;;
434;SDS011;204;48.942;9.256;2023-04-04T10:57:26;4.25;;;3.08;;
434;SDS011;204;48.942;9.256;2023-04-04T10:59:56;3.92;;;2.65;;
434;SDS011;204;48.942;9.256;2023-04-04T11:05:32;3.80;;;2.88;;
434;SDS011;204;48.942;9.256;2023-04-04T11:08:04;5.07;;;2.60;;
434;SDS011;204;48.942;9.256;2023-04-04T11:10:35;3.03;;;2.50;;
434;SDS011;204;48.942;9.256;2023-04-04T11:13:15;2.80;;;2.28;;
434;SDS011;204;48.942;9.256;2023-04-04T11:15:57;2.78;;;2.40;;
434;SDS011;204;48.942;9.256;2023-04-04T11:21:03;3.33;;;2.40;;
434;SDS011;204;48.942;9.256;2023-04-04T11:26:17;2.85;;;2.30;;
434;SDS011;204;48.942;9.256;2023-04-04T11:28:44;2.83;;;2.63;;
434;SDS011;204;48.942;9.256;2023-04-04T11:33:55;8.38;;;2.83;;
434;SDS011;204;48.942;9.256;2023-04-04T11:39:23;4.72;;;2.95;;
434;SDS011;204;48.942;9.256;2023-04-04T11:44:16;3.03;;;2.57;;
434;SDS011;204;48.942;9.256;2023-04-04T11:46:43;2.35;;;2.20;;
434;SDS011;204;48.942;9.256;2023-04-04T11:49:11;2.35;;;2.15;;
434;SDS011;204;48.942;9.256;2023-04-04T11:51:41;3.50;;;2.55;;
434;SDS011;204;48.942;9.256;2023-04-04T11:54:16;6.65;;;2.88;;
434;SDS011;204;48.942;9.256;2023-04-04T11:56:42;3.10;;;2.45;;
434;SDS011;204;48.942;9.256;2023-04-04T11:59:12;2.67;;;2.47;;
434;SDS011;204;48.942;9.256;2023-04-04T12:01:42;3.70;;;2.75;;
434;SDS011;204;48.942;9.256;2023-04-04T12:04:09;2.47;;;2.33;;
434;SDS011;204;48.942;9.256;2023-04-04T12:06:35;2.50;;;2.30;;
434;SDS011;204;48.942;9.256;2023-04-04T12:09:02;3.95;;;3.10;;
434;SDS011;204;48.942;9.256;2023-04-04T12:11:29;4.60;;;2.60;;
434;SDS011;204;48.942;9.256;2023-04-04T12:13:57;2.50;;;2.20;;
434;SDS011;204;48.942;9.256;2023-04-04T12:16:24;4.80;;;2.10;;
434;SDS011;204;48.942;9.256;2023-04-04T12:18:50;5.55;;;2.97;;
434;SDS011;204;48.942;9.256;2023-04-04T12:21:17;3.55;;;2.30;;
434;SDS011;204;48.942;9.256;2023-04-04T12:23:42;3.00;;;2.27;;
434;SDS011;204;48.942;9.256;2023-04-04T12:26:08;3.47;;;3.20;;
434;SDS011;204;48.942;9.256;2023-04-04T12:28:35;3.33;;;2.30;;
434;SDS011;204;48.942;9.256;2023-04-04T12:31:03;7.78;;;3.38;;
434;SDS011;204;48.942;9.256;2023-04-04T12:33:33;2.85;;;2.65;;
434;SDS011;204;48.942;9.256;2023-04-04T12:36:03;2.40;;;1.88;;
434;SDS011;204;48.942;9.256;2023-04-04T12:38:30;3.38;;;2.40;;
434;SDS011;204;48.942;9.256;2023-04-04T12:40:56;2.90;;;2.70;;
434;SDS011;204;48.942;9.256;2023-04-04T12:43:25;3.72;;;2.65;;
434;SDS011;204;48.942;9.256;2023-04-04T12:45:53;4.38;;;3.25;;
434;SDS011;204;48.942;9.256;2023-04-04T12:48:25;5.32;;;2.75;;
434;SDS011;204;48.942;9.256;2023-04-04T12:50:52;3.20;;;2.22;;
434;SDS011;204;48.942;9.256;2023-04-04T12:53:22;6.78;;;2.53;;
434;SDS011;204;48.942;9.256;2023-04-04T12:55:50;3.50;;;2.88;;
434;SDS011;204;48.942;9.256;2023-04-04T12:58:18;4.07;;;2.90;;
434;SDS011;204;48.942;9.256;2023-04-04T13:00:45;2.42;;;2.22;;
434;SDS011;204;48.942;9.256;2023-04-04T13:03:14;3.57;;;2.40;;
434;SDS011;204;48.942;9.256;2023-04-04T13:05:41;2.30;;;2.13;;
434;SDS011;204;48.942;9.256;2023-04-04T13:08:08;2.45;;;2.20;;
434;SDS011;204;48.942;9.256;2023-04-04T13:13:33;4.45;;;2.50;;
434;SDS011;204;48.942;9.256;2023-04-04T13:16:04;3.00;;;2.50;;
434;SDS011;204;48.942;9.256;2023-04-04T13:18:33;4.15;;;3.33;;
434;SDS011;204;48.942;9.256;2023-04-04T13:21:02;3.75;;;2.60;;
434;SDS011;204;48.942;9.256;2023-04-04T13:23:28;6.18;;;3.03;;
434;SDS011;204;48.942;9.256;2023-04-04T13:25:54;3.77;;;3.00;;
434;SDS011;204;48.942;9.256;2023-04-04T13:28:20;5.00;;;2.92;;
434;SDS011;204;48.942;9.256;2023-04-04T13:30:46;5.47;;;2.90;;
434;SDS011;204;48.942;9.256;2023-04-04T13:33:13;4.13;;;3.20;;
434;SDS011;204;48.942;9.256;2023-04-04T13:35:41;4.82;;;2.67;;
434;SDS011;204;48.942;9.256;2023-04-04T13:38:08;2.83;;;2.63;;
434;SDS011;204;48.942;9.256;2023-04-04T13:40:34;3.00;;;2.60;;
434;SDS011;204;48.942;9.256;2023-04-04T13:43:00;9.40;;;3.03;;
434;SDS011;204;48.942;9.256;2023-04-04T13:45:26;5.00;;;3.00;;
434;SDS011;204;48.942;9.256;2023-04-04T13:47:51;5.37;;;2.93;;
434;SDS011;204;48.942;9.256;2023-04-04T13:50:17;3.43;;;3.23;;
434;SDS011;204;48.942;9.256;2023-04-04T13:52:42;3.87;;;3.10;;
434;SDS011;204;48.942;9.256;2023-04-04T13:55:08;3.43;;;2.83;;
434;SDS011;204;48.942;9.256;2023-04-04T13:57:34;3.30;;;3.08;;
434;SDS011;204;48.942;9.256;2023-04-04T14:00:00;3.80;;;3.40;;
434;SDS011;204;48.942;9.256;2023-04-04T14:02:26;4.07;;;2.95;;
434;SDS011;204;48.942;9.256;2023-04-04T14:04:52;4.03;;;3.42;;
434;SDS011;204;48.942;9.256;2023-04-04T14:07:18;4.83;;;3.23;;
434;SDS011;204;48.942;9.256;2023-04-04T14:09:43;4.97;;;2.93;;
434;SDS011;204;48.942;9.256;2023-04-04T14:12:09;2.80;;;2.60;;
434;SDS011;204;48.942;9.256;2023-04-04T14:14:35;4.30;;;3.17;;
434;SDS011;204;48.942;9.256;2023-04-04T14:17:01;3.33;;;2.97;;
434;SDS011;204;48.942;9.256;2023-04-04T14:19:26;8.70;;;3.67;;
434;SDS011;204;48.942;9.256;2023-04-04T14:21:52;4.70;;;3.80;;
434;SDS011;204;48.942;9.256;2023-04-04T14:24:17;4.93;;;3.10;;
434;SDS011;204;48.942;9.256;2023-04-04T14:26:43;3.20;;;2.90;;
434;SDS011;204;48.942;9.256;2023-04-04T14:29:08;4.93;;;3.57;;
434;SDS011;204;48.942;9.256;2023-04-04T14:31:34;4.10;;;2.90;;
434;SDS011;204;48.942;9.256;2023-04-04T14:34:01;3.53;;;3.33;;
434;SDS011;204;48.942;9.256;2023-04-04T14:36:27;4.65;;;4.38;;
434;SDS011;204;48.942;9.256;2023-04-04T14:38:53;3.03;;;2.90;;
434;SDS011;204;48.942;9.256;2023-04-04T14:41:19;3.27;;;2.90;;
434;SDS011;204;48.942;9.256;2023-04-04T14:43:45;3.75;;;2.50;;
434;SDS011;204;48.942;9.256;2023-04-04T14:46:11;4.50;;;2.80;;
434;SDS011;204;48.942;9.256;2023-04-04T14:48:36;5.33;;;2.50;;
434;SDS011;204;48.942;9.256;2023-04-04T14:51:02;5.10;;;3.28;;
434;SDS011;204;48.942;9.256;2023-04-04T14:53:28;3.28;;;3.10;;
434;SDS011;204;48.942;9.256;2023-04-04T14:55:54;3.77;;;3.10;;
434;SDS011;204;48.942;9.256;2023-04-04T14:58:20;3.43;;;3.23;;
434;SDS011;204;48.942;9.256;2023-04-04T15:00:45;3.30;;;3.10;;
434;SDS011;204;48.942;9.256;2023-04-04T15:03:12;7.32;;;5.38;;
434;SDS011;204;48.942;9.256;2023-04-04T15:05:37;6.57;;;4.60;;
434;SDS011;204;48.942;9.256;2023-04-04T15:08:03;3.77;;;3.57;;
434;SDS011;204;48.942;9.256;2023-04-04T15:10:28;4.07;;;3.10;;
434;SDS011;204;48.942;9.256;2023-04-04T15:12:54;4.53;;;3.57;;
434;SDS011;204;48.942;9.256;2023-04-04T15:15:20;3.20;;;3.00;;
434;SDS011;204;48.942;9.256;2023-04-04T15:17:46;5.23;;;3.70;;
434;SDS011;204;48.942;9.256;2023-04-04T15:20:11;5.17;;;3.27;;
434;SDS011;204;48.942;9.256;2023-04-04T15:22:37;3.33;;;3.10;;
434;SDS011;204;48.942;9.256;2023-04-04T15:25:05;3.10;;;2.90;;
434;SDS011;204;48.942;9.256;2023-04-04T15:27:32;3.92;;;2.95;;
434;SDS011;204;48.942;9.256;2023-04-04T15:29:58;3.30;;;3.13;;
434;SDS011;204;48.942;9.256;2023-04-04T15:32:23;3.10;;;2.80;;
434;SDS011;204;48.942;9.256;2023-04-04T15:34:49;5.53;;;3.00;;
434;SDS011;204;48.942;9.256;2023-04-04T15:37:14;5.00;;;2.90;;
434;SDS011;204;48.942;9.256;2023-04-04T15:39:40;2.77;;;2.63;;
434;SDS011;204;48.942;9.256;2023-04-04T15:42:07;5.75;;;2.88;;
434;SDS011;204;48.942;9.256;2023-04-04T15:44:32;3.17;;;3.00;;
434;SDS011;204;48.942;9.256;2023-04-04T15:46:58;3.43;;;3.23;;
434;SDS011;204;48.942;9.256;2023-04-04T15:49:24;3.50;;;3.20;;
434;SDS011;204;48.942;9.256;2023-04-04T15:51:49;3.63;;;3.47;;
434;SDS011;204;48.942;9.256;2023-04-04T15:54:15;4.30;;;2.87;;
434;SDS011;204;48.942;9.256;2023-04-04T15:56:41;5.10;;;3.30;;
434;SDS011;204;48.942;9.256;2023-04-04T15:59:06;3.00;;;2.80;;
434;SDS011;204;48.942;9.256;2023-04-04T16:01:32;5.60;;;4.50;;
434;SDS011;204;48.942;9.256;2023-04-04T16:03:58;4.10;;;3.90;;
434;SDS011;204;48.942;9.256;2023-04-04T16:06:23;4.03;;;3.87;;